Time;durP1;ratioP1;P1;durP2;ratioP2;P2;SDS_P1;SDS_P2;PMS_P1;PMS_P2;Temp;Humidity;BMP_temperature;BMP_pressure;BME280_temperature;BME280_humidity;BME280_pressure;Samples;Min_cycle;Max_cycle;Signal;HPM_P1;HPM_P2
2022/11/24 00:00:54;;;;;;;73.22;30.35;;;;;;;;;;5097395;28;20146;-67
2022/11/24 00:03:21;;;;;;;75.20;28.95;;;;;;;;;;5115655;28;20520;-67
2022/11/24 00:05:49;;;;;;;73.38;28.67;;;;;;;;;;5115611;28;20090;-68
2022/11/24 00:08:17;;;;;;;73.97;30.40;;;;;;;;;;5097226;28;20423;-67
2022/11/24 00:10:44;;;;;;;80.53;30.70;;;;;;;;;;5115501;28;20031;-68
2022/11/24 00:13:12;;;;;;;83.22;31.50;;;;;;;;;;5115428;28;20040;-68
2022/11/24 00:15:39;;;;;;;71.30;28.75;;;;;;;;;;5115312;28;20130;-68
2022/11/24 00:18:06;;;;;;;79.80;31.35;;;;;;;;;;5115422;28;20554;-67
2022/11/24 00:20:34;;;;;;;85.93;30.95;;;;;;;;;;5115498;28;20056;-68
2022/11/24 00:23:01;;;;;;;81.97;31.92;;;;;;;;;;5115197;28;20047;-68
2022/11/24 00:25:29;;;;;;;76.07;30.65;;;;;;;;;;5114466;28;20040;-68
2022/11/24 00:27:56;;;;;;;66.38;28.00;;;;;;;;;;5114987;28;20036;-68
2022/11/24 00:30:24;;;;;;;428.45;68.82;;;;;;;;;;5115063;28;20035;-67
2022/11/24 00:32:52;;;;;;;584.95;97.43;;;;;;;;;;5114888;28;20118;-68
2022/11/24 00:35:19;;;;;;;102.07;36.75;;;;;;;;;;5096959;28;20042;-67
2022/11/24 00:37:47;;;;;;;68.50;26.50;;;;;;;;;;5114392;28;20036;-68
2022/11/24 00:40:14;;;;;;;155.65;36.50;;;;;;;;;;5114843;28;20031;-67
2022/11/24 00:42:42;;;;;;;67.85;25.63;;;;;;;;;;5114676;28;20105;-67
2022/11/24 00:45:09;;;;;;;133.15;33.53;;;;;;;;;;5114799;28;20118;-68
2022/11/24 00:47:40;;;;;;;123.50;32.38;;;;;;;;;;5114990;28;20131;-68
2022/11/24 00:50:08;;;;;;;79.82;27.70;;;;;;;;;;5114568;28;20122;-67
2022/11/24 00:52:35;;;;;;;65.80;26.42;;;;;;;;;;5114689;28;20038;-68
2022/11/24 00:55:03;;;;;;;71.00;26.20;;;;;;;;;;5114579;28;20096;-67
2022/11/24 00:57:30;;;;;;;355.65;57.67;;;;;;;;;;5114949;28;20043;-68
2022/11/24 00:59:58;;;;;;;690.40;94.60;;;;;;;;;;5114497;28;20052;-67
2022/11/24 01:02:26;;;;;;;126.63;31.98;;;;;;;;;;5114410;28;20059;-68
2022/11/24 01:04:53;;;;;;;67.07;25.33;;;;;;;;;;5114684;28;20530;-68
2022/11/24 01:07:21;;;;;;;69.28;25.35;;;;;;;;;;5114356;28;20035;-68
2022/11/24 01:09:48;;;;;;;85.72;30.38;;;;;;;;;;5114337;28;20460;-68
2022/11/24 01:12:16;;;;;;;78.82;27.38;;;;;;;;;;5114600;28;20481;-68
2022/11/24 01:14:43;;;;;;;83.78;28.25;;;;;;;;;;5114050;28;20052;-68
2022/11/24 01:17:10;;;;;;;69.68;25.73;;;;;;;;;;5114221;28;20039;-67
2022/11/24 01:19:38;;;;;;;65.00;25.80;;;;;;;;;;5113962;28;20485;-67
2022/11/24 01:22:05;;;;;;;55.35;22.85;;;;;;;;;;5114070;28;20039;-68
2022/11/24 01:24:33;;;;;;;54.83;22.50;;;;;;;;;;5113995;28;20032;-68
2022/11/24 01:27:00;;;;;;;59.72;23.55;;;;;;;;;;5114127;28;20036;-68
2022/11/24 01:29:28;;;;;;;57.42;24.02;;;;;;;;;;5113840;28;20089;-67
2022/11/24 01:31:55;;;;;;;56.40;22.95;;;;;;;;;;5113992;28;20073;-68
2022/11/24 01:34:23;;;;;;;49.13;21.15;;;;;;;;;;5114084;28;20040;-68
2022/11/24 01:36:50;;;;;;;48.33;20.60;;;;;;;;;;5113815;28;20093;-68
2022/11/24 01:39:17;;;;;;;46.83;22.38;;;;;;;;;;5113765;28;20032;-68
2022/11/24 01:41:45;;;;;;;38.97;18.73;;;;;;;;;;5113643;28;20542;-67
2022/11/24 01:44:20;;;;;;;36.85;18.52;;;;;;;;;;5113712;28;20039;-68
2022/11/24 01:46:49;;;;;;;36.70;17.77;;;;;;;;;;5113710;28;20122;-68
2022/11/24 01:49:18;;;;;;;41.83;19.23;;;;;;;;;;5113719;28;20036;-68
2022/11/24 01:51:49;;;;;;;37.30;17.55;;;;;;;;;;5113630;28;20043;-68
2022/11/24 01:54:21;;;;;;;44.63;19.58;;;;;;;;;;5113358;28;20498;-67
2022/11/24 01:56:51;;;;;;;47.13;20.20;;;;;;;;;;5113577;28;20400;-68
2022/11/24 01:59:20;;;;;;;50.72;20.90;;;;;;;;;;5113565;28;20040;-67
2022/11/24 02:01:49;;;;;;;48.38;19.20;;;;;;;;;;5113401;28;20068;-67
2022/11/24 02:04:18;;;;;;;45.63;19.75;;;;;;;;;;5112818;28;20100;-67
2022/11/24 02:06:47;;;;;;;42.20;19.10;;;;;;;;;;5113408;28;20047;-68
2022/11/24 02:09:17;;;;;;;36.03;17.58;;;;;;;;;;5113499;28;20056;-67
2022/11/24 02:11:45;;;;;;;38.42;17.05;;;;;;;;;;5113192;28;20078;-68
2022/11/24 02:14:15;;;;;;;50.83;20.90;;;;;;;;;;5113075;28;20100;-68
2022/11/24 02:16:44;;;;;;;44.72;19.52;;;;;;;;;;5113089;28;20043;-68
2022/11/24 02:19:22;;;;;;;45.78;18.42;;;;;;;;;;5113422;28;20397;-68
2022/11/24 02:21:49;;;;;;;47.38;19.65;;;;;;;;;;5113269;28;20036;-68
2022/11/24 02:24:16;;;;;;;53.55;21.45;;;;;;;;;;5113255;28;20378;-68
2022/11/24 02:26:48;;;;;;;48.90;20.02;;;;;;;;;;5113027;28;20035;-68
2022/11/24 02:29:16;;;;;;;46.17;18.58;;;;;;;;;;5113095;28;20097;-68
2022/11/24 02:31:52;;;;;;;49.90;21.02;;;;;;;;;;5094845;28;20040;-68
2022/11/24 02:34:19;;;;;;;51.05;21.13;;;;;;;;;;5112481;28;20118;-68
2022/11/24 02:36:47;;;;;;;44.08;19.73;;;;;;;;;;5094733;28;20044;-68
2022/11/24 02:39:14;;;;;;;40.80;17.70;;;;;;;;;;5112837;28;20039;-68
2022/11/24 02:41:43;;;;;;;36.00;17.40;;;;;;;;;;5112659;28;20074;-68
2022/11/24 02:44:11;;;;;;;28.23;14.70;;;;;;;;;;5094634;28;20077;-67
2022/11/24 02:46:38;;;;;;;35.58;16.98;;;;;;;;;;5112906;28;20043;-68
2022/11/24 02:49:06;;;;;;;31.98;15.88;;;;;;;;;;5113716;28;20443;-68
2022/11/24 02:51:33;;;;;;;33.05;16.75;;;;;;;;;;5116959;28;20040;-68
2022/11/24 02:54:00;;;;;;;42.65;19.02;;;;;;;;;;5117133;28;20134;-68
2022/11/24 02:56:28;;;;;;;39.10;18.45;;;;;;;;;;5116991;28;20042;-68
2022/11/24 02:58:55;;;;;;;41.90;18.30;;;;;;;;;;5117254;28;20050;-68
2022/11/24 03:01:23;;;;;;;37.50;17.17;;;;;;;;;;5116808;28;20032;-68
2022/11/24 03:03:50;;;;;;;39.20;17.65;;;;;;;;;;5098558;28;20086;-68
2022/11/24 03:06:18;;;;;;;34.50;16.98;;;;;;;;;;5116881;28;20563;-68
2022/11/24 03:08:45;;;;;;;47.08;19.05;;;;;;;;;;5116910;28;20036;-69
2022/11/24 03:11:15;;;;;;;52.15;21.30;;;;;;;;;;5099041;28;20054;-68
2022/11/24 03:13:42;;;;;;;55.42;21.75;;;;;;;;;;5116397;28;20089;-68
2022/11/24 03:16:10;;;;;;;57.03;21.55;;;;;;;;;;5116361;28;20123;-68
2022/11/24 03:18:37;;;;;;;50.92;20.55;;;;;;;;;;5116517;28;20039;-68
2022/11/24 03:21:05;;;;;;;50.15;20.10;;;;;;;;;;5116427;28;20032;-68
2022/11/24 03:23:33;;;;;;;44.55;19.92;;;;;;;;;;5116253;28;20054;-68
2022/11/24 03:26:09;;;;;;;43.28;18.50;;;;;;;;;;5116644;28;20044;-69
2022/11/24 03:28:36;;;;;;;44.53;17.63;;;;;;;;;;5116276;28;20046;-68
2022/11/24 03:31:04;;;;;;;46.35;19.48;;;;;;;;;;5116216;28;20442;-68
2022/11/24 03:33:32;;;;;;;47.05;18.95;;;;;;;;;;5116042;28;20039;-68
2022/11/24 03:35:59;;;;;;;45.38;19.08;;;;;;;;;;5116146;28;20443;-68
2022/11/24 03:38:27;;;;;;;48.20;19.40;;;;;;;;;;5116064;28;20047;-67
2022/11/24 03:40:55;;;;;;;47.33;19.55;;;;;;;;;;5098143;28;20042;-68
2022/11/24 03:43:23;;;;;;;37.70;18.13;;;;;;;;;;5115895;28;20082;-68
2022/11/24 03:45:50;;;;;;;41.40;18.30;;;;;;;;;;5116013;28;20438;-68
2022/11/24 03:48:21;;;;;;;46.95;18.90;;;;;;;;;;5115884;28;20097;-68
2022/11/24 03:50:52;;;;;;;40.15;17.80;;;;;;;;;;5097811;28;20046;-68
2022/11/24 03:53:20;;;;;;;38.70;17.40;;;;;;;;;;5115844;28;20083;-68
2022/11/24 03:55:47;;;;;;;35.45;16.83;;;;;;;;;;5115718;28;20040;-68
2022/11/24 03:58:15;;;;;;;41.20;17.67;;;;;;;;;;5115796;28;20115;-68
2022/11/24 04:00:42;;;;;;;37.53;18.00;;;;;;;;;;5096494;28;20048;-68
2022/11/24 04:03:10;;;;;;;40.22;17.95;;;;;;;;;;5115491;28;20432;-68
2022/11/24 04:05:37;;;;;;;38.55;18.15;;;;;;;;;;5115888;28;20339;-68
2022/11/24 04:08:05;;;;;;;35.50;16.70;;;;;;;;;;5115643;28;20050;-68
2022/11/24 04:10:34;;;;;;;34.30;15.95;;;;;;;;;;5115542;28;20040;-68
2022/11/24 04:13:03;;;;;;;38.63;16.58;;;;;;;;;;5115548;28;20119;-68
2022/11/24 04:15:30;;;;;;;32.55;15.80;;;;;;;;;;5115372;28;20039;-68
2022/11/24 04:17:57;;;;;;;36.22;15.60;;;;;;;;;;5115382;28;20036;-68
2022/11/24 04:20:25;;;;;;;37.40;16.63;;;;;;;;;;5115381;28;20061;-68
2022/11/24 04:22:52;;;;;;;34.47;15.48;;;;;;;;;;5114903;28;20036;-68
2022/11/24 04:25:20;;;;;;;30.13;14.10;;;;;;;;;;5115098;28;20065;-69
2022/11/24 04:27:52;;;;;;;32.65;15.05;;;;;;;;;;5115202;28;20039;-67
2022/11/24 04:30:20;;;;;;;32.58;14.60;;;;;;;;;;5115158;28;20054;-68
2022/11/24 04:32:48;;;;;;;34.70;14.90;;;;;;;;;;5115050;28;20439;-68
2022/11/24 04:35:15;;;;;;;28.65;13.85;;;;;;;;;;5115169;28;20046;-68
2022/11/24 04:37:43;;;;;;;33.90;14.85;;;;;;;;;;5115082;28;20229;-68
2022/11/24 04:40:11;;;;;;;32.25;14.07;;;;;;;;;;5114770;28;20044;-68
2022/11/24 04:42:38;;;;;;;38.25;15.52;;;;;;;;;;5114761;28;20039;-68
2022/11/24 04:45:06;;;;;;;41.05;15.10;;;;;;;;;;5114763;28;20093;-68
2022/11/24 04:47:34;;;;;;;36.30;14.65;;;;;;;;;;5114798;28;20384;-68
2022/11/24 04:50:03;;;;;;;35.65;15.45;;;;;;;;;;5114448;28;20042;-68
2022/11/24 04:52:30;;;;;;;34.25;14.95;;;;;;;;;;5114625;28;20039;-68
2022/11/24 04:54:58;;;;;;;34.38;14.30;;;;;;;;;;5114639;28;20548;-67
2022/11/24 04:57:26;;;;;;;37.22;15.13;;;;;;;;;;5114842;28;20096;-67
2022/11/24 04:59:54;;;;;;;30.67;13.63;;;;;;;;;;5114652;28;20040;-67
2022/11/24 05:02:22;;;;;;;34.03;14.23;;;;;;;;;;5096454;28;20520;-67
2022/11/24 05:04:50;;;;;;;35.17;15.02;;;;;;;;;;5114501;28;20046;-67
2022/11/24 05:07:17;;;;;;;32.97;13.98;;;;;;;;;;5114445;28;20110;-68
2022/11/24 05:12:34;;;;;;;30.50;13.48;;;;;;;;;;5114037;28;20067;-68
2022/11/24 05:15:02;;;;;;;35.70;14.43;;;;;;;;;;5114017;28;20577;-68
2022/11/24 05:17:35;;;;;;;33.63;14.48;;;;;;;;;;5114038;28;20035;-71
2022/11/24 05:20:03;;;;;;;36.35;14.10;;;;;;;;;;5114185;28;20046;-75
2022/11/24 05:22:31;;;;;;;35.58;14.93;;;;;;;;;;5114107;28;20508;-74
2022/11/24 05:24:58;;;;;;;37.85;15.02;;;;;;;;;;5114063;28;20044;-71
2022/11/24 05:27:25;;;;;;;31.90;14.20;;;;;;;;;;5113769;28;20489;-72
2022/11/24 05:29:54;;;;;;;35.17;14.88;;;;;;;;;;5113848;28;20051;-73
2022/11/24 05:32:21;;;;;;;35.53;14.98;;;;;;;;;;5113765;28;20085;-72
2022/11/24 05:34:49;;;;;;;39.63;15.98;;;;;;;;;;5113579;28;20050;-72
2022/11/24 05:37:19;;;;;;;36.33;15.27;;;;;;;;;;5078661;28;20055;-74
2022/11/24 05:39:47;;;;;;;37.22;15.15;;;;;;;;;;5078667;28;20070;-73
2022/11/24 05:45:01;;;;;;;40.47;17.45;;;;;;;;;;5113008;28;20044;-70
2022/11/24 05:47:28;;;;;;;37.05;16.58;;;;;;;;;;5111713;28;20032;-72
2022/11/24 05:49:56;;;;;;;37.92;16.15;;;;;;;;;;5112515;28;20036;-72
2022/11/24 05:52:23;;;;;;;38.90;16.98;;;;;;;;;;5112581;28;20036;-72
2022/11/24 05:54:50;;;;;;;36.83;15.90;;;;;;;;;;5113283;28;20050;-72
2022/11/24 05:57:18;;;;;;;34.90;15.60;;;;;;;;;;5113545;28;20081;-72
2022/11/24 05:59:45;;;;;;;37.72;16.45;;;;;;;;;;5113452;28;20047;-72
2022/11/24 06:02:13;;;;;;;32.20;14.60;;;;;;;;;;5095202;28;20039;-73
2022/11/24 06:04:40;;;;;;;30.98;14.57;;;;;;;;;;5113408;28;20044;-73
2022/11/24 06:07:09;;;;;;;31.27;15.32;;;;;;;;;;5095362;28;20080;-73
2022/11/24 06:09:37;;;;;;;31.52;15.15;;;;;;;;;;5113429;28;20501;-72
2022/11/24 06:12:05;;;;;;;31.85;14.70;;;;;;;;;;5113326;28;20040;-73
2022/11/24 06:14:33;;;;;;;31.17;15.35;;;;;;;;;;5113152;28;20048;-73
2022/11/24 06:17:01;;;;;;;26.23;14.00;;;;;;;;;;5113364;28;20043;-73
2022/11/24 06:19:28;;;;;;;29.38;14.00;;;;;;;;;;5113185;28;20040;-73
2022/11/24 06:21:56;;;;;;;21.08;11.65;;;;;;;;;;5113128;28;20093;-72
2022/11/24 06:24:23;;;;;;;23.48;12.82;;;;;;;;;;5094482;28;20053;-73
2022/11/24 06:26:51;;;;;;;22.85;13.73;;;;;;;;;;5113246;28;20039;-72
2022/11/24 06:29:18;;;;;;;21.38;12.70;;;;;;;;;;5113226;28;20046;-73
2022/11/24 06:31:46;;;;;;;22.48;13.73;;;;;;;;;;5113229;28;20039;-73
2022/11/24 06:34:13;;;;;;;22.80;13.70;;;;;;;;;;5095273;28;20046;-73
2022/11/24 06:36:41;;;;;;;20.00;12.38;;;;;;;;;;5113173;28;20127;-73
2022/11/24 06:39:09;;;;;;;19.77;11.93;;;;;;;;;;5113130;28;20151;-72
2022/11/24 06:41:37;;;;;;;19.52;12.43;;;;;;;;;;5113093;28;20093;-73
2022/11/24 06:44:04;;;;;;;24.27;13.88;;;;;;;;;;5113254;28;20408;-73
2022/11/24 06:46:32;;;;;;;24.88;14.63;;;;;;;;;;5113048;28;20040;-73
2022/11/24 06:48:59;;;;;;;24.58;13.40;;;;;;;;;;5112887;28;20075;-73
2022/11/24 06:51:27;;;;;;;22.52;13.50;;;;;;;;;;5112846;28;20493;-74
2022/11/24 06:53:54;;;;;;;21.30;13.20;;;;;;;;;;5112903;28;20130;-73
2022/11/24 06:56:22;;;;;;;21.58;12.88;;;;;;;;;;5112876;28;20092;-73
2022/11/24 06:58:50;;;;;;;24.10;12.88;;;;;;;;;;5094498;28;20497;-72
2022/11/24 07:01:22;;;;;;;25.17;12.45;;;;;;;;;;5112952;28;20383;-72
2022/11/24 07:03:50;;;;;;;22.85;13.23;;;;;;;;;;5112584;28;20092;-72
2022/11/24 07:06:18;;;;;;;24.00;13.02;;;;;;;;;;5112708;28;20089;-72
2022/11/24 07:08:45;;;;;;;20.88;12.10;;;;;;;;;;5112622;28;20040;-72
2022/11/24 07:11:15;;;;;;;22.73;12.38;;;;;;;;;;5112662;28;20455;-73
2022/11/24 07:13:43;;;;;;;23.30;12.10;;;;;;;;;;5112464;28;20052;-73
2022/11/24 07:16:13;;;;;;;24.17;12.75;;;;;;;;;;5094583;28;20036;-72
2022/11/24 07:18:42;;;;;;;23.67;11.82;;;;;;;;;;5112255;28;20129;-73
2022/11/24 07:21:09;;;;;;;23.77;12.52;;;;;;;;;;5112533;28;20043;-72
2022/11/24 07:23:37;;;;;;;25.27;13.70;;;;;;;;;;5112366;28;20050;-72
2022/11/24 07:26:05;;;;;;;27.02;12.95;;;;;;;;;;5112393;28;20108;-72
2022/11/24 07:28:35;;;;;;;28.88;12.90;;;;;;;;;;5112455;28;20039;-74
2022/11/24 07:31:07;;;;;;;25.50;12.52;;;;;;;;;;5112524;28;20063;-73
2022/11/24 07:33:34;;;;;;;25.52;12.48;;;;;;;;;;5112468;28;20044;-73
2022/11/24 07:36:02;;;;;;;24.38;11.77;;;;;;;;;;5114630;28;20040;-72
2022/11/24 07:38:30;;;;;;;23.30;12.40;;;;;;;;;;5098311;28;20046;-72
2022/11/24 07:41:06;;;;;;;21.95;11.38;;;;;;;;;;5097798;28;20040;-72
2022/11/24 07:43:34;;;;;;;24.95;12.60;;;;;;;;;;5097593;28;20062;-72
2022/11/24 07:46:01;;;;;;;26.20;12.82;;;;;;;;;;5115797;28;20067;-74
2022/11/24 07:48:29;;;;;;;27.05;12.55;;;;;;;;;;5115761;28;20050;-73
2022/11/24 07:50:59;;;;;;;25.30;13.07;;;;;;;;;;5115879;28;20036;-74
2022/11/24 07:53:27;;;;;;;25.95;13.30;;;;;;;;;;5116090;28;20047;-74
2022/11/24 07:55:55;;;;;;;26.15;13.52;;;;;;;;;;5115778;28;20043;-73
2022/11/24 07:58:22;;;;;;;28.90;13.85;;;;;;;;;;5115863;28;20070;-76
2022/11/24 08:00:56;;;;;;;28.02;14.15;;;;;;;;;;5115726;28;20197;-74
2022/11/24 08:03:24;;;;;;;27.25;14.65;;;;;;;;;;5115672;28;20050;-75
2022/11/24 08:05:59;;;;;;;26.17;14.13;;;;;;;;;;5115666;28;20063;-74
2022/11/24 08:08:46;;;;;;;26.38;13.90;;;;;;;;;;5115400;28;20067;-73
2022/11/24 08:11:16;;;;;;;25.15;13.85;;;;;;;;;;5115722;28;20031;-74
2022/11/24 08:13:44;;;;;;;24.75;14.40;;;;;;;;;;5115474;28;20048;-73
2022/11/24 08:16:13;;;;;;;32.20;16.83;;;;;;;;;;5115607;28;20104;-75
2022/11/24 08:18:42;;;;;;;31.33;17.30;;;;;;;;;;5115382;28;20123;-74
2022/11/24 08:21:13;;;;;;;34.33;17.17;;;;;;;;;;5115392;28;20044;-75
2022/11/24 08:23:40;;;;;;;29.17;16.35;;;;;;;;;;5097289;28;20130;-74
2022/11/24 08:26:12;;;;;;;30.58;16.08;;;;;;;;;;5115248;28;20563;-73
2022/11/24 08:28:40;;;;;;;36.20;18.05;;;;;;;;;;5115250;28;20040;-74
2022/11/24 08:31:09;;;;;;;33.58;17.75;;;;;;;;;;5097142;28;20431;-74
2022/11/24 08:33:36;;;;;;;34.60;15.70;;;;;;;;;;5097030;28;20525;-74
2022/11/24 08:36:05;;;;;;;31.80;15.77;;;;;;;;;;5115088;28;20040;-74
2022/11/24 08:38:33;;;;;;;27.85;15.38;;;;;;;;;;5115023;28;20054;-75
2022/11/24 08:41:05;;;;;;;30.45;16.23;;;;;;;;;;5115106;28;20036;-75
2022/11/24 08:43:33;;;;;;;28.50;15.30;;;;;;;;;;5115056;28;20108;-76
2022/11/24 08:46:01;;;;;;;29.45;14.65;;;;;;;;;;5114743;28;20075;-74
2022/11/24 08:48:29;;;;;;;30.60;15.82;;;;;;;;;;5114476;28;20393;-75
2022/11/24 08:50:57;;;;;;;29.77;16.17;;;;;;;;;;5114894;28;20039;-75
2022/11/24 08:53:25;;;;;;;29.27;15.95;;;;;;;;;;5096440;28;20059;-74
2022/11/24 08:55:53;;;;;;;33.63;18.13;;;;;;;;;;5114761;28;20040;-73
2022/11/24 08:58:21;;;;;;;36.97;17.13;;;;;;;;;;5096481;28;20070;-73
2022/11/24 09:00:48;;;;;;;33.10;16.63;;;;;;;;;;5114732;28;20050;-74
2022/11/24 09:03:15;;;;;;;30.60;15.75;;;;;;;;;;5114350;28;20553;-74
2022/11/24 09:05:43;;;;;;;32.90;17.10;;;;;;;;;;5114573;28;20039;-74
2022/11/24 09:08:18;;;;;;;;;;;;;;;;;;5114883;28;20046;-75
2022/11/24 09:10:46;;;;;;;28.05;15.38;;;;;;;;;;5114374;28;19920;-74
2022/11/24 09:13:13;;;;;;;25.67;14.68;;;;;;;;;;5096008;28;20040;-74
2022/11/24 09:15:41;;;;;;;24.67;13.88;;;;;;;;;;5114331;28;20509;-75
2022/11/24 09:18:08;;;;;;;25.23;15.10;;;;;;;;;;5095974;28;20054;-73
2022/11/24 09:20:35;;;;;;;29.10;16.33;;;;;;;;;;5114084;28;20497;-74
2022/11/24 09:23:03;;;;;;;28.00;16.40;;;;;;;;;;5114095;28;20054;-74
2022/11/24 09:25:30;;;;;;;30.52;16.88;;;;;;;;;;5114020;28;20043;-75
2022/11/24 09:27:58;;;;;;;19.33;12.70;;;;;;;;;;5095758;28;20085;-73
2022/11/24 09:30:26;;;;;;;19.50;11.88;;;;;;;;;;5114073;28;20039;-74
2022/11/24 09:32:55;;;;;;;10.35;8.18;;;;;;;;;;5095987;28;20036;-74
2022/11/24 09:35:23;;;;;;;9.98;8.02;;;;;;;;;;5113965;28;20040;-75
2022/11/24 09:37:50;;;;;;;10.50;8.10;;;;;;;;;;5113992;28;20036;-74
2022/11/24 09:40:18;;;;;;;8.32;7.18;;;;;;;;;;5113944;28;20045;-75
2022/11/24 09:42:59;;;;;;;9.45;8.23;;;;;;;;;;5113919;28;20036;-74
2022/11/24 09:45:27;;;;;;;9.15;7.47;;;;;;;;;;5113902;28;20074;-74
2022/11/24 09:48:22;;;;;;;5.93;5.30;;;;;;;;;;5113766;28;20532;-75
2022/11/24 09:50:51;;;;;;;6.20;5.53;;;;;;;;;;5113540;28;20054;-74
2022/11/24 09:53:25;;;;;;;5.57;4.95;;;;;;;;;;5113927;28;20450;-74
2022/11/24 09:55:57;;;;;;;6.57;4.90;;;;;;;;;;5113639;28;20058;-74
2022/11/24 09:58:31;;;;;;;4.95;4.13;;;;;;;;;;5113122;28;20088;-75
2022/11/24 10:01:00;;;;;;;3.20;2.90;;;;;;;;;;5113525;28;20489;-74
2022/11/24 10:03:37;;;;;;;3.10;2.80;;;;;;;;;;5113521;28;20114;-75
2022/11/24 10:06:09;;;;;;;2.55;2.10;;;;;;;;;;5113468;28;20104;-75
2022/11/24 10:08:45;;;;;;;2.45;2.20;;;;;;;;;;5113347;28;20047;-74
2022/11/24 10:11:14;;;;;;;3.05;1.77;;;;;;;;;;5113291;28;20089;-76
2022/11/24 10:13:45;;;;;;;3.33;2.35;;;;;;;;;;5113370;28;20082;-75
2022/11/24 10:16:13;;;;;;;2.65;1.90;;;;;;;;;;5113072;28;20048;-76
2022/11/24 10:18:49;;;;;;;2.88;2.08;;;;;;;;;;5113365;28;20047;-75
2022/11/24 10:21:23;;;;;;;5.70;2.20;;;;;;;;;;5113303;28;20035;-76
2022/11/24 10:24:08;;;;;;;2.30;2.10;;;;;;;;;;5112932;28;20118;-75
2022/11/24 10:26:36;;;;;;;;;;;;;;;;;;5113526;28;20057;-75
2022/11/24 10:29:12;;;;;;;2.40;1.52;;;;;;;;;;5113256;28;19920;-74
2022/11/24 10:31:41;;;;;;;3.47;1.75;;;;;;;;;;5113212;28;20074;-75
2022/11/24 10:34:16;;;;;;;4.00;2.00;;;;;;;;;;5113298;28;20079;-75
2022/11/24 10:36:56;;;;;;;2.58;1.90;;;;;;;;;;5112932;28;20561;-75
2022/11/24 10:39:29;;;;;;;2.13;1.92;;;;;;;;;;5094878;28;20051;-74
2022/11/24 10:42:15;;;;;;;4.45;2.35;;;;;;;;;;5113024;28;20122;-75
2022/11/24 10:44:43;;;;;;;2.53;2.17;;;;;;;;;;5112942;28;20051;-76
2022/11/24 10:47:17;;;;;;;3.63;2.60;;;;;;;;;;5113217;28;20051;-76
2022/11/24 10:49:49;;;;;;;4.00;2.95;;;;;;;;;;5112987;28;20046;-75
2022/11/24 10:52:18;;;;;;;3.85;3.15;;;;;;;;;;5112916;28;20048;-75
2022/11/24 10:54:55;;;;;;;4.47;3.00;;;;;;;;;;5112852;28;20047;-74
2022/11/24 10:57:31;;;;;;;5.22;3.00;;;;;;;;;;5112738;28;20047;-75
2022/11/24 10:59:59;;;;;;;4.00;3.28;;;;;;;;;;5112934;28;20501;-74
2022/11/24 11:02:34;;;;;;;5.32;3.40;;;;;;;;;;5094556;28;20089;-75
2022/11/24 11:05:21;;;;;;;5.57;4.10;;;;;;;;;;5112839;28;20071;-74
2022/11/24 11:07:48;;;;;;;7.68;3.92;;;;;;;;;;5112784;28;20050;-75
2022/11/24 11:10:25;;;;;;;6.68;4.63;;;;;;;;;;5113946;28;20538;-75
2022/11/24 11:12:52;;;;;;;6.93;5.10;;;;;;;;;;5116770;28;20050;-75
2022/11/24 11:15:24;;;;;;;10.77;5.65;;;;;;;;;;5116458;28;20513;-74
2022/11/24 11:17:53;;;;;;;6.10;4.85;;;;;;;;;;5098248;28;20485;-74
2022/11/24 11:20:28;;;;;;;7.07;5.25;;;;;;;;;;5098453;28;20047;-74
2022/11/24 11:22:56;;;;;;;;;;;;;;;;;;5117233;28;20472;-74
2022/11/24 11:25:26;;;;;;;8.65;5.65;;;;;;;;;;5116441;28;19926;-74
2022/11/24 11:28:10;;;;;;;7.60;5.10;;;;;;;;;;5116502;28;20079;-74
2022/11/24 11:31:04;;;;;;;8.40;5.55;;;;;;;;;;5116409;28;20043;-74
2022/11/24 11:33:56;;;;;;;7.97;5.43;;;;;;;;;;5116676;28;20374;-74
2022/11/24 11:36:45;;;;;;;8.60;5.40;;;;;;;;;;5116396;28;20042;-74
2022/11/24 11:39:28;;;;;;;7.72;5.15;;;;;;;;;;5098169;28;20060;-75
2022/11/24 11:42:02;;;;;;;8.57;5.00;;;;;;;;;;5116191;28;20057;-75
2022/11/24 11:44:39;;;;;;;7.28;5.30;;;;;;;;;;5098273;28;20468;-75
2022/11/24 11:47:25;;;;;;;7.13;5.15;;;;;;;;;;5115999;28;20036;-75
2022/11/24 11:49:53;;;;;;;9.20;5.40;;;;;;;;;;5115999;28;20043;-75
2022/11/24 11:52:37;;;;;;;6.90;5.00;;;;;;;;;;5116124;28;20052;-75
2022/11/24 11:55:19;;;;;;;6.35;4.90;;;;;;;;;;5115905;28;20047;-77
2022/11/24 11:57:50;;;;;;;8.52;6.00;;;;;;;;;;5116113;28;20404;-74
2022/11/24 12:00:20;;;;;;;7.15;5.47;;;;;;;;;;5115899;28;20036;-75
2022/11/24 12:03:07;;;;;;;6.47;4.53;;;;;;;;;;5097413;28;20044;-75
2022/11/24 12:05:50;;;;;;;6.60;5.32;;;;;;;;;;5115531;28;20047;-76
2022/11/24 12:08:24;;;;;;;8.43;5.43;;;;;;;;;;5115429;28;20042;-75
2022/11/24 12:11:06;;;;;;;7.40;5.18;;;;;;;;;;5115520;28;20089;-75
2022/11/24 12:13:48;;;;;;;7.13;5.20;;;;;;;;;;5115463;28;20473;-76
2022/11/24 12:16:22;;;;;;;5.55;4.70;;;;;;;;;;5115669;28;20099;-76
2022/11/24 12:18:56;;;;;;;8.00;4.82;;;;;;;;;;5115262;28;20027;-75
2022/11/24 12:21:25;;;;;;;6.93;4.90;;;;;;;;;;5114490;28;20048;-75
2022/11/24 12:23:53;;;;;;;6.68;5.35;;;;;;;;;;5097011;28;20069;-73
2022/11/24 12:26:22;;;;;;;6.10;4.80;;;;;;;;;;5115455;28;20420;-75
2022/11/24 12:29:07;;;;;;;6.13;4.85;;;;;;;;;;5115219;28;20039;-74
2022/11/24 12:31:47;;;;;;;6.65;4.95;;;;;;;;;;5096879;28;20048;-75
2022/11/24 12:34:20;;;;;;;5.57;4.70;;;;;;;;;;5115065;28;20044;-76
2022/11/24 12:36:57;;;;;;;9.20;5.18;;;;;;;;;;5097012;28;20039;-73
2022/11/24 12:39:31;;;;;;;6.85;5.13;;;;;;;;;;5115103;28;20043;-75
2022/11/24 12:42:05;;;;;;;11.23;5.53;;;;;;;;;;5115079;28;20043;-74
2022/11/24 12:44:49;;;;;;;8.85;5.88;;;;;;;;;;5114904;28;20050;-75
2022/11/24 12:47:19;;;;;;;6.32;4.97;;;;;;;;;;5114764;28;20046;-75
2022/11/24 12:49:46;;;;;;;7.93;5.50;;;;;;;;;;5114891;28;20044;-74
2022/11/24 12:52:14;;;;;;;8.77;5.88;;;;;;;;;;5114778;28;20085;-74
2022/11/24 12:54:41;;;;;;;9.15;6.07;;;;;;;;;;5115081;28;20035;-75
2022/11/24 12:57:12;;;;;;;9.25;6.60;;;;;;;;;;5114631;28;20126;-76
2022/11/24 13:00:06;;;;;;;7.65;5.95;;;;;;;;;;5114940;28;20043;-75
2022/11/24 13:02:34;;;;;;;9.85;6.47;;;;;;;;;;5093437;28;20055;-75
2022/11/24 13:05:07;;;;;;;11.88;6.63;;;;;;;;;;5114410;28;20044;-74
2022/11/24 13:07:34;;;;;;;11.85;7.60;;;;;;;;;;5096131;28;20568;-75
2022/11/24 13:10:20;;;;;;;8.27;6.40;;;;;;;;;;5096149;28;20409;-74
2022/11/24 13:13:09;;;;;;;9.98;6.80;;;;;;;;;;5114319;28;20067;-75
2022/11/24 13:15:57;;;;;;;9.63;7.28;;;;;;;;;;5114067;28;20088;-75
2022/11/24 13:19:02;;;;;;;10.02;6.80;;;;;;;;;;5112261;28;20075;-75
2022/11/24 13:21:44;;;;;;;10.10;7.10;;;;;;;;;;5114602;28;20054;-74
2022/11/24 13:24:17;;;;;;;12.73;7.30;;;;;;;;;;5096039;28;20497;-76
2022/11/24 13:26:47;;;;;;;10.23;7.28;;;;;;;;;;5114216;28;20122;-74
2022/11/24 13:29:27;;;;;;;10.95;7.57;;;;;;;;;;5095872;28;20089;-74
2022/11/24 13:31:55;;;;;;;10.65;6.97;;;;;;;;;;5114012;28;20040;-74
2022/11/24 13:34:53;;;;;;;11.20;7.60;;;;;;;;;;5113632;28;20040;-74
2022/11/24 13:37:24;;;;;;;13.57;8.68;;;;;;;;;;5113840;28;20055;-73
2022/11/24 13:40:02;;;;;;;11.70;7.25;;;;;;;;;;5113508;28;20114;-74
2022/11/24 13:42:30;;;;;;;12.80;7.60;;;;;;;;;;5113601;28;20032;-75
2022/11/24 13:45:30;;;;;;;10.07;7.25;;;;;;;;;;5113547;28;20048;-76
2022/11/24 13:47:57;;;;;;;9.88;7.07;;;;;;;;;;5113233;28;20123;-74
2022/11/24 13:50:45;;;;;;;12.88;7.13;;;;;;;;;;5113579;28;20036;-73
2022/11/24 13:53:15;;;;;;;9.30;6.88;;;;;;;;;;5113415;28;20060;-74
2022/11/24 13:55:52;;;;;;;14.00;7.82;;;;;;;;;;5113297;28;20489;-75
2022/11/24 13:58:40;;;;;;;11.65;6.95;;;;;;;;;;5113427;28;20036;-75
2022/11/24 14:01:16;;;;;;;11.57;7.35;;;;;;;;;;5113735;28;20036;-74
2022/11/24 14:03:59;;;;;;;10.85;7.47;;;;;;;;;;5113430;28;20500;-74
2022/11/24 14:06:55;;;;;;;9.32;6.97;;;;;;;;;;5113314;28;20043;-74
2022/11/24 14:09:44;;;;;;;12.63;7.50;;;;;;;;;;5095194;28;20485;-74
2022/11/24 14:12:17;;;;;;;12.82;8.80;;;;;;;;;;5113322;28;20035;-74
2022/11/24 14:14:50;;;;;;;12.60;7.00;;;;;;;;;;5113068;28;20044;-74
2022/11/24 14:17:17;;;;;;;10.85;7.72;;;;;;;;;;5113237;28;20043;-75
2022/11/24 14:19:46;;;;;;;11.35;7.47;;;;;;;;;;5113253;28;20039;-74
2022/11/24 14:22:25;;;;;;;10.60;7.07;;;;;;;;;;5113057;28;20047;-75
2022/11/24 14:24:57;;;;;;;10.60;7.80;;;;;;;;;;5113078;28;20052;-75
2022/11/24 14:27:28;;;;;;;11.57;8.52;;;;;;;;;;5113376;28;20489;-75
2022/11/24 14:29:57;;;;;;;10.35;8.00;;;;;;;;;;5112912;28;20044;-75
2022/11/24 14:32:24;;;;;;;11.18;7.93;;;;;;;;;;5113094;28;20040;-75
2022/11/24 14:34:53;;;;;;;10.68;8.35;;;;;;;;;;5112990;28;20435;-74
2022/11/24 14:37:21;;;;;;;10.30;7.35;;;;;;;;;;5112928;28;20071;-74
2022/11/24 14:39:48;;;;;;;12.68;7.82;;;;;;;;;;5113121;28;20362;-74
2022/11/24 14:42:17;;;;;;;11.82;7.68;;;;;;;;;;5112904;28;20044;-73
2022/11/24 14:44:47;;;;;;;12.82;7.95;;;;;;;;;;5112916;28;20396;-70
2022/11/24 14:47:23;;;;;;;10.48;7.82;;;;;;;;;;5116644;28;20047;-70
2022/11/24 14:50:05;;;;;;;12.15;9.32;;;;;;;;;;5116993;28;20142;-69
2022/11/24 14:52:33;;;;;;;12.68;8.73;;;;;;;;;;5117038;28;20047;-70